Airfield :
LOGIN :

Register | Disclaimer

   EN    FR    IT 

 










Legend :    VFR   Marginal VFR   IFR   Intensive IFR   Very Intensive IFR
Visi :
Ceiling :
>= 8 km
>= 3000ft
5 to 8 km
1000 to 3000 ft
1500m to 5 km
500 to 1000 ft
800 to 1500m
200 to 500 ft
< 800m
< 200 ft
Symbols :   Thunderstorms  Fog  Heavy snow  Heavy precipitations  Wind > 20 kt
SIGMETs :     Misc.  Thunderstorms  Icing  Turbulence  Mountain Waves  Volcanic Ashes







- Airport Elevation : 779 ft
- IATA code : CMF
- Download approach charts


LFLB - Chambery / Aix-Les-Bains

CURRENT METAR :
  • 211430Z AUTO 01009KT CAVOK 24/15 Q1013 TEMPO VRB15G25KT 2000 TSRA SCT045CB SCT050TCU

EXPIRED METARs :
  • 211400Z AUTO 01010KT 9999 FEW054/// SCT170/// ///TCU 26/15 Q1013 TEMPO VRB15G25KT 2000 TSRA SCT045CB SCT050TCU
  • 211330Z AUTO 02009KT CAVOK 26/15 Q1013 TEMPO VRB15G25KT 2000 TSRA SCT045CB SCT050TCU
  • 211300Z AUTO 02007KT 9999 FEW044/// BKN110/// BKN130/// ///CB 25/16 Q1013 TEMPO VRB15G25KT 2000 TSRA
  • 211230Z AUTO 02009KT 9999 FEW064/// BKN100/// OVC130/// ///CB 24/16 Q1014 TEMPO VRB15G25KT 2000 TSRA
  • 211200Z AUTO 02010KT 9999 FEW048 BKN130 23/15 Q1014 TEMPO VRB15G25KT 2000 TSRA SCT045CB SCT050TCU

TAF TAF LFLB
Valid from the 21 at 12:00 until the 22 at 12:00 UTC


211100Z 2112/2212 35008KT 9999 FEW050TCU SCT060
PROB40
TEMPO 2112/2120 4000 SHRA SCT050TCU
PROB30
TEMPO 2112/2118 VRB15G25KT 2000 TSRA SCT045CB SCT050TCU
BECMG 2122/2124 CAVOK
TEMPO 2200/2206 VRB03KT
No reported NOTAMs for that airfield.



MET'MAP, your aeronautical weather chart ! - Copyright ORBIFLY December 2007 - Disclaimer

ORBIFLY MET'MAP TEAM :

Programming & Development : Alexandra Zaïnal
Concept & Development : Baudouin d'Aumeries
Co-Development & Prog : Marc-Olivier Méhu
Technical & hardware support : Manuel Goepfert

Contact : metmap@orbifly.com




SOURCES & CREDITS :

   NOAA